createdAt,value
2023-01-01T00:00:16.397Z,10.99
2023-01-01T00:03:38.090Z,10.93
2023-01-01T00:06:40.693Z,10.89
2023-01-01T00:09:42.389Z,10.89
2023-01-01T00:12:43.976Z,10.91
2023-01-01T00:15:45.632Z,10.90
2023-01-01T00:18:47.504Z,10.90
2023-01-01T00:21:49.137Z,10.90
2023-01-01T00:24:50.782Z,10.85
2023-01-01T00:27:52.384Z,10.82
2023-01-01T00:30:54.206Z,10.78
2023-01-01T00:33:56.667Z,10.70
2023-01-01T00:36:58.396Z,10.57
2023-01-01T00:39:59.935Z,10.49
2023-01-01T00:43:01.595Z,10.38
2023-01-01T00:46:04.496Z,10.36
2023-01-01T00:49:06.179Z,10.34
2023-01-01T00:52:07.947Z,10.34
2023-01-01T00:55:10.454Z,10.43
2023-01-01T00:58:12.059Z,10.49
2023-01-01T01:01:13.831Z,10.57
2023-01-01T01:04:15.725Z,10.64
2023-01-01T01:07:17.408Z,10.67
2023-01-01T01:10:19.372Z,10.71
2023-01-01T01:13:21.194Z,10.83
2023-01-01T01:16:28.364Z,11.06
2023-01-01T01:19:30.157Z,11.31
2023-01-01T01:22:33.177Z,11.46
2023-01-01T01:25:34.808Z,11.53
2023-01-01T01:28:36.520Z,11.59
2023-01-01T01:31:38.293Z,11.68
2023-01-01T01:34:40.111Z,11.76
2023-01-01T01:37:41.953Z,11.81
2023-01-01T01:40:44.555Z,11.84
2023-01-01T01:44:00.348Z,11.91
2023-01-01T01:47:02.781Z,12.10
2023-01-01T01:50:13.759Z,12.32
2023-01-01T01:53:30.030Z,12.42
2023-01-01T01:56:45.217Z,12.49
2023-01-01T01:59:49.070Z,12.51
2023-01-01T02:02:58.512Z,12.60
2023-01-01T02:06:01.239Z,12.74
2023-01-01T02:09:05.369Z,12.81
2023-01-01T02:12:06.917Z,12.80
2023-01-01T02:15:09.059Z,12.77
2023-01-01T02:18:12.963Z,12.67
2023-01-01T02:21:19.665Z,12.64
2023-01-01T02:24:43.981Z,12.64
2023-01-01T02:28:13.999Z,12.56
2023-01-01T02:31:23.163Z,12.61
2023-01-01T02:34:29.651Z,12.63
2023-01-01T02:37:31.376Z,12.64
2023-01-01T02:40:35.286Z,12.63
2023-01-01T02:43:38.573Z,12.61
2023-01-01T02:46:40.124Z,12.57
2023-01-01T02:49:48.860Z,12.52
2023-01-01T02:53:12.125Z,12.52
2023-01-01T02:56:50.645Z,12.52
2023-01-01T03:00:04.183Z,12.52
2023-01-01T03:03:19.971Z,12.55
2023-01-01T03:06:33.456Z,12.58
2023-01-01T03:09:59.494Z,12.62
2023-01-01T03:13:10.079Z,12.49
2023-01-01T03:16:29.541Z,12.44
2023-01-01T03:19:35.101Z,12.49
2023-01-01T03:25:44.499Z,12.57
2023-01-01T03:28:57.983Z,12.55
2023-01-01T03:32:01.942Z,12.63
2023-01-01T03:35:04.058Z,12.83
2023-01-01T03:38:10.576Z,12.93
2023-01-01T03:41:29.731Z,12.94
2023-01-01T03:44:36.539Z,12.97
2023-01-01T03:47:38.450Z,12.93
2023-01-01T03:51:10.537Z,12.75
2023-01-01T03:54:34.463Z,12.61
2023-01-01T03:57:58.093Z,12.58
2023-01-01T04:01:21.763Z,12.47
2023-01-01T04:04:25.236Z,12.24
2023-01-01T04:07:26.947Z,11.96
2023-01-01T04:10:31.180Z,11.78
2023-01-01T04:13:46.369Z,11.63
2023-01-01T04:16:48.061Z,11.54
2023-01-01T04:19:54.808Z,11.49
2023-01-01T04:23:02.400Z,11.36
2023-01-01T04:26:04.083Z,11.19
2023-01-01T04:29:05.751Z,11.04
2023-01-01T04:32:07.598Z,10.84
2023-01-01T04:35:10.904Z,10.48
2023-01-01T04:38:13.876Z,10.08
2023-01-01T04:41:15.517Z,9.85
2023-01-01T04:44:17.160Z,9.69
2023-01-01T04:47:18.828Z,9.49
2023-01-01T04:50:20.447Z,9.37
2023-01-01T04:53:22.057Z,9.15
2023-01-01T04:56:23.625Z,8.97
2023-01-01T04:59:25.331Z,8.79
2023-01-01T05:02:27.454Z,8.67
2023-01-01T05:05:29.402Z,8.43
2023-01-01T05:08:32.172Z,8.19
2023-01-01T05:11:33.823Z,7.99
2023-01-01T05:14:35.462Z,7.74
2023-01-01T05:17:37.136Z,7.49
2023-01-01T05:20:38.811Z,7.29
2023-01-01T05:23:40.586Z,7.12
2023-01-01T05:26:43.843Z,6.92
2023-01-01T05:29:45.480Z,6.77
2023-01-01T05:32:46.981Z,6.70
2023-01-01T05:35:53.774Z,6.66
2023-01-01T05:38:55.732Z,6.65
2023-01-01T05:41:57.491Z,6.54
2023-01-01T05:44:59.098Z,6.53
2023-01-01T05:48:00.958Z,6.40
2023-01-01T05:51:09.757Z,6.12
2023-01-01T05:57:11.832Z,6.09
2023-01-01T06:00:13.729Z,6.17
2023-01-01T06:03:15.242Z,6.22
2023-01-01T06:06:19.312Z,6.15
2023-01-01T06:09:20.977Z,6.07
2023-01-01T06:12:22.531Z,5.93
2023-01-01T06:15:24.163Z,5.86
2023-01-01T06:18:26.234Z,6.08
2023-01-01T06:21:29.101Z,6.06
2023-01-01T06:24:36.983Z,5.90
2023-01-01T06:27:40.592Z,5.98
2023-01-01T06:30:42.663Z,5.86
2023-01-01T06:33:44.685Z,5.78
2023-01-01T06:36:46.248Z,5.78
2023-01-01T06:39:47.948Z,5.92
2023-01-01T06:42:49.627Z,5.96
2023-01-01T06:46:04.124Z,5.86
2023-01-01T06:49:09.837Z,5.80
2023-01-01T06:52:11.514Z,5.72
2023-01-01T06:55:13.221Z,5.67
2023-01-01T06:58:14.777Z,5.65
2023-01-01T07:01:18.917Z,5.73
2023-01-01T07:04:20.691Z,5.88
2023-01-01T07:07:22.308Z,5.91
2023-01-01T07:10:23.884Z,5.92
2023-01-01T07:13:25.798Z,5.98
2023-01-01T07:16:27.493Z,6.11
2023-01-01T07:19:29.173Z,6.00
2023-01-01T07:22:30.869Z,5.81
2023-01-01T07:25:32.527Z,5.68
2023-01-01T07:28:34.057Z,5.51
2023-01-01T07:31:37.330Z,5.46
2023-01-01T07:34:39.113Z,5.60
2023-01-01T07:37:40.715Z,5.81
2023-01-01T07:40:42.993Z,6.10
2023-01-01T07:43:44.621Z,6.39
2023-01-01T07:46:46.448Z,6.63
2023-01-01T07:49:48.201Z,6.79
2023-01-01T07:52:49.756Z,6.93
2023-01-01T07:55:51.346Z,7.12
2023-01-01T07:58:52.942Z,7.30
2023-01-01T08:01:54.615Z,7.52
2023-01-01T08:04:56.233Z,7.71
2023-01-01T08:07:57.729Z,7.88
2023-01-01T08:11:04.199Z,8.03
2023-01-01T08:14:05.992Z,8.07
2023-01-01T08:17:07.621Z,7.95
2023-01-01T08:20:09.544Z,7.82
2023-01-01T08:23:11.106Z,7.86
2023-01-01T08:26:14.190Z,7.93
2023-01-01T08:29:16.323Z,7.94
2023-01-01T08:32:17.954Z,8.05
2023-01-01T08:35:19.856Z,8.15
2023-01-01T08:38:21.649Z,8.20
2023-01-01T08:41:23.220Z,8.21
2023-01-01T08:44:24.753Z,8.27
2023-01-01T08:47:27.107Z,8.38
2023-01-01T08:50:28.939Z,8.57
2023-01-01T08:53:31.665Z,8.72
2023-01-01T08:56:33.338Z,8.89
2023-01-01T08:59:35.065Z,9.05
2023-01-01T09:02:36.861Z,9.20
2023-01-01T09:05:38.623Z,9.32
2023-01-01T09:08:40.440Z,9.45
2023-01-01T09:11:50.905Z,9.58
2023-01-01T09:14:52.590Z,9.70
2023-01-01T09:17:54.450Z,9.82
2023-01-01T09:20:56.047Z,9.88
2023-01-01T09:23:57.670Z,9.90
2023-01-01T09:27:00.582Z,9.89
2023-01-01T09:30:02.539Z,9.98
2023-01-01T09:33:04.345Z,10.07
2023-01-01T09:36:18.127Z,10.19
2023-01-01T09:39:19.771Z,10.36
2023-01-01T09:42:36.334Z,10.48
2023-01-01T09:45:48.441Z,10.64
2023-01-01T09:48:57.400Z,10.81
2023-01-01T09:51:59.799Z,10.94
2023-01-01T09:55:04.204Z,11.04
2023-01-01T09:58:05.924Z,11.07
2023-01-01T10:01:19.461Z,11.05
2023-01-01T10:04:42.222Z,11.01
2023-01-01T10:07:46.911Z,11.40
2023-01-01T10:11:20.729Z,12.85
2023-01-01T10:14:49.828Z,14.33
2023-01-01T10:17:58.288Z,15.43
2023-01-01T10:21:19.886Z,16.44
2023-01-01T10:24:36.954Z,17.42
2023-01-01T10:27:41.683Z,18.18
2023-01-01T10:30:44.160Z,18.71
2023-01-01T10:33:46.815Z,19.05
2023-01-01T10:36:50.014Z,19.33
2023-01-01T10:39:51.639Z,19.40
2023-01-01T10:42:55.452Z,19.64
2023-01-01T10:45:57.418Z,20.05
2023-01-01T10:49:06.485Z,20.52
2023-01-01T10:52:14.678Z,21.13
2023-01-01T10:55:21.185Z,21.78
2023-01-01T10:58:28.080Z,22.32
2023-01-01T11:01:31.788Z,22.68
2023-01-01T11:04:33.406Z,22.93
2023-01-01T11:07:35.093Z,22.74
2023-01-01T11:10:36.698Z,22.56
2023-01-01T11:13:39.819Z,22.40
2023-01-01T11:16:41.500Z,22.34
2023-01-01T11:19:48.677Z,22.20
2023-01-01T11:22:53.094Z,22.16
2023-01-01T11:26:02.885Z,22.07
2023-01-01T11:29:16.879Z,22.09
2023-01-01T11:32:31.524Z,22.21
2023-01-01T11:35:50.477Z,21.49
2023-01-01T11:39:15.825Z,20.75
2023-01-01T11:42:23.899Z,20.33
2023-01-01T11:45:30.667Z,19.78
2023-01-01T11:48:36.935Z,19.11
2023-01-01T11:51:38.433Z,18.70
2023-01-01T11:54:40.246Z,18.59
2023-01-01T11:57:49.490Z,18.33
2023-01-01T12:00:55.159Z,17.86
2023-01-01T12:04:11.634Z,17.57
2023-01-01T12:07:16.923Z,17.33
2023-01-01T12:10:22.614Z,17.20
2023-01-01T12:13:30.702Z,17.12
2023-01-01T12:16:44.644Z,17.04
2023-01-01T12:20:01.317Z,17.01
2023-01-01T12:23:02.980Z,16.94
2023-01-01T12:26:28.065Z,16.82
2023-01-01T12:29:52.903Z,16.61
2023-01-01T12:33:09.804Z,16.53
2023-01-01T12:36:26.577Z,16.38
2023-01-01T12:39:56.691Z,16.22
2023-01-01T12:43:11.380Z,16.13
2023-01-01T12:46:40.007Z,16.00
2023-01-01T12:50:00.984Z,15.85
2023-01-01T12:53:22.731Z,15.69
2023-01-01T12:56:43.503Z,15.54
2023-01-01T12:59:48.485Z,15.39
2023-01-01T13:02:58.408Z,15.27
2023-01-01T13:06:00.799Z,15.12
2023-01-01T13:09:10.675Z,14.97
2023-01-01T13:12:15.698Z,14.81
2023-01-01T13:15:39.517Z,14.70
2023-01-01T13:18:41.130Z,14.63
2023-01-01T13:21:42.762Z,14.61
2023-01-01T13:25:05.524Z,14.58
2023-01-01T13:28:12.390Z,14.58
2023-01-01T13:31:13.993Z,14.52
2023-01-01T13:34:31.263Z,14.34
2023-01-01T13:37:42.428Z,13.95
2023-01-01T13:40:51.126Z,13.46
2023-01-01T13:44:01.919Z,13.16
2023-01-01T13:47:31.964Z,12.92
2023-01-01T13:50:44.103Z,12.66
2023-01-01T13:54:04.800Z,12.53
2023-01-01T13:57:25.320Z,12.50
2023-01-01T14:00:31.986Z,12.45
2023-01-01T14:03:40.733Z,12.34
2023-01-01T14:06:43.220Z,12.31
2023-01-01T14:09:44.838Z,12.29
2023-01-01T14:12:47.248Z,12.24
2023-01-01T14:15:59.467Z,12.20
2023-01-01T14:19:01.587Z,12.20
2023-01-01T14:22:07.498Z,12.15
2023-01-01T14:25:15.399Z,12.11
2023-01-01T14:28:24.612Z,12.13
2023-01-01T14:31:29.774Z,12.09
2023-01-01T14:34:33.140Z,11.87
2023-01-01T14:37:34.985Z,11.75
2023-01-01T14:40:36.675Z,11.61
2023-01-01T14:43:40.052Z,11.54
2023-01-01T14:46:44.572Z,11.41
2023-01-01T14:49:46.137Z,11.12
2023-01-01T14:52:52.581Z,10.75
2023-01-01T14:55:54.365Z,10.48
2023-01-01T14:59:06.632Z,10.29
2023-01-01T15:02:16.910Z,9.98
2023-01-01T15:05:35.517Z,9.90
2023-01-01T15:08:37.707Z,9.89
2023-01-01T15:11:39.502Z,10.09
2023-01-01T15:14:42.909Z,10.18
2023-01-01T15:17:46.635Z,10.13
2023-01-01T15:20:53.624Z,10.11
2023-01-01T15:23:58.459Z,10.12
2023-01-01T15:27:01.487Z,10.10
2023-01-01T15:30:11.666Z,9.98
2023-01-01T15:33:16.272Z,9.86
2023-01-01T15:36:24.386Z,9.81
2023-01-01T15:39:27.198Z,9.75
2023-01-01T15:42:37.875Z,9.62
2023-01-01T15:45:40.703Z,9.50
2023-01-01T15:48:51.082Z,9.59
2023-01-01T15:51:54.538Z,9.73
2023-01-01T15:54:56.246Z,9.74
2023-01-01T15:57:58.215Z,9.69
2023-01-01T16:01:02.688Z,9.67
2023-01-01T16:04:08.846Z,9.50
2023-01-01T16:07:19.789Z,9.18
2023-01-01T16:10:21.455Z,8.82
2023-01-01T16:13:23.102Z,8.39
2023-01-01T16:16:29.406Z,8.01
2023-01-01T16:19:32.079Z,7.73
2023-01-01T16:22:36.927Z,7.58
2023-01-01T16:25:38.898Z,7.43
2023-01-01T16:28:40.617Z,7.44
2023-01-01T16:31:43.250Z,7.30
2023-01-01T16:34:44.976Z,7.31
2023-01-01T16:37:46.536Z,7.41
2023-01-01T16:40:48.141Z,7.46
2023-01-01T16:43:49.796Z,7.58
2023-01-01T16:46:51.470Z,7.65
2023-01-01T16:49:53.182Z,7.77
2023-01-01T16:52:54.775Z,7.64
2023-01-01T16:55:56.413Z,7.47
2023-01-01T16:59:02.773Z,7.24
2023-01-01T17:02:05.521Z,7.04
2023-01-01T17:05:07.718Z,6.98
2023-01-01T17:08:09.284Z,6.91
2023-01-01T17:11:11.792Z,6.87
2023-01-01T17:14:13.449Z,6.92
2023-01-01T17:17:15.020Z,6.88
2023-01-01T17:20:16.709Z,6.77
2023-01-01T17:23:18.173Z,6.68
2023-01-01T17:26:22.179Z,6.59
2023-01-01T17:29:25.273Z,6.40
2023-01-01T17:32:27.000Z,6.15
2023-01-01T17:35:33.051Z,5.98
2023-01-01T17:38:34.975Z,5.79
2023-01-01T17:41:36.520Z,5.55
2023-01-01T17:44:38.245Z,5.37
2023-01-01T17:47:39.981Z,5.31
2023-01-01T17:50:44.588Z,5.26
2023-01-01T17:53:46.556Z,5.40
2023-01-01T17:56:48.153Z,5.55
2023-01-01T17:59:49.710Z,5.65
2023-01-01T18:02:51.482Z,5.73
2023-01-01T18:05:56.073Z,5.73
2023-01-01T18:09:00.019Z,5.58
2023-01-01T18:12:01.625Z,5.39
2023-01-01T18:15:03.224Z,5.50
2023-01-01T18:18:04.936Z,5.60
2023-01-01T18:21:11.175Z,5.61
2023-01-01T18:24:14.755Z,5.54
2023-01-01T18:27:16.756Z,5.55
2023-01-01T18:30:18.505Z,5.60
2023-01-01T18:33:20.140Z,5.64
2023-01-01T18:36:22.730Z,5.85
2023-01-01T18:39:29.924Z,6.14
2023-01-01T18:42:50.385Z,6.14
2023-01-01T18:45:52.060Z,6.02
2023-01-01T18:48:58.873Z,5.70
2023-01-01T18:52:27.202Z,5.40
2023-01-01T18:55:28.885Z,5.25
2023-01-01T18:58:30.375Z,5.08
2023-01-01T19:01:32.401Z,4.93
2023-01-01T19:04:34.204Z,4.85
2023-01-01T19:07:35.732Z,4.88
2023-01-01T19:10:39.419Z,5.03
2023-01-01T19:13:41.069Z,4.99
2023-01-01T19:16:42.898Z,4.78
2023-01-01T19:19:44.474Z,4.79
2023-01-01T19:22:46.130Z,4.83
2023-01-01T19:25:47.787Z,4.99
2023-01-01T19:28:50.519Z,4.99
2023-01-01T19:31:54.207Z,5.07
2023-01-01T19:34:55.882Z,5.21
2023-01-01T19:37:57.454Z,5.40
2023-01-01T19:40:59.152Z,5.52
2023-01-01T19:44:01.427Z,5.59
2023-01-01T19:47:03.570Z,5.45
2023-01-01T19:50:05.572Z,5.18
2023-01-01T19:53:07.288Z,4.73
2023-01-01T19:56:09.007Z,4.27
2023-01-01T19:59:10.531Z,3.75
2023-01-01T20:02:44.193Z,3.40
2023-01-01T20:05:35.447Z,3.11
2023-01-01T20:08:37.388Z,2.93
2023-01-01T20:11:39.003Z,2.72
2023-01-01T20:14:40.733Z,2.62
2023-01-01T20:17:42.262Z,2.68
2023-01-01T20:20:43.812Z,2.75
2023-01-01T20:23:45.542Z,2.80
2023-01-01T20:26:47.156Z,2.88
2023-01-01T20:29:48.768Z,2.84
2023-01-01T20:32:50.863Z,2.79
2023-01-01T20:35:52.543Z,2.77
2023-01-01T20:38:54.179Z,2.63
2023-01-01T20:41:55.805Z,2.60
2023-01-01T20:44:57.857Z,2.52
2023-01-01T20:47:59.498Z,2.44
2023-01-01T20:51:00.991Z,2.43
2023-01-01T20:54:02.672Z,2.37
2023-01-01T20:57:04.236Z,2.32
2023-01-01T21:00:06.576Z,2.26
2023-01-01T21:03:08.192Z,2.26
2023-01-01T21:06:09.810Z,2.32
2023-01-01T21:09:11.741Z,2.36
2023-01-01T21:12:13.301Z,2.28
2023-01-01T21:15:15.336Z,2.23
2023-01-01T21:18:16.928Z,2.16
2023-01-01T21:21:24.286Z,2.05
2023-01-01T21:24:33.701Z,1.97
2023-01-01T21:27:35.308Z,1.88
2023-01-01T21:30:41.350Z,1.87
2023-01-01T21:33:44.721Z,1.92
2023-01-01T21:36:46.316Z,1.89
2023-01-01T21:39:48.207Z,1.86
2023-01-01T21:42:52.708Z,1.85
2023-01-01T21:45:56.954Z,1.85
2023-01-01T21:49:17.804Z,1.84
2023-01-01T21:52:23.245Z,1.80
2023-01-01T21:55:27.954Z,1.80
2023-01-01T21:58:33.232Z,1.78
2023-01-01T22:01:43.884Z,1.78
2023-01-01T22:04:47.683Z,1.77
2023-01-01T22:07:58.210Z,1.79
2023-01-01T22:11:01.385Z,1.80
2023-01-01T22:14:19.142Z,1.82
2023-01-01T22:17:35.026Z,1.75
2023-01-01T22:20:39.676Z,1.58
2023-01-01T22:23:42.080Z,1.42
2023-01-01T22:26:43.676Z,1.33
2023-01-01T22:29:45.788Z,1.29
2023-01-01T22:32:50.470Z,1.27
2023-01-01T22:35:55.309Z,1.33
2023-01-01T22:39:09.725Z,1.35
2023-01-01T22:42:15.163Z,1.45
2023-01-01T22:45:16.858Z,1.49
2023-01-01T22:48:33.673Z,1.48
2023-01-01T22:51:41.272Z,1.50
2023-01-01T22:54:42.903Z,1.48
2023-01-01T22:57:44.588Z,1.48
2023-01-01T23:00:46.126Z,1.45
2023-01-01T23:03:47.967Z,1.42
2023-01-01T23:06:53.196Z,1.39
2023-01-01T23:09:59.516Z,1.38
2023-01-01T23:13:01.347Z,1.37
2023-01-01T23:16:03.151Z,1.34
2023-01-01T23:19:06.017Z,1.30
2023-01-01T23:22:07.638Z,1.23
2023-01-01T23:25:11.957Z,1.17
2023-01-01T23:28:13.848Z,1.11
2023-01-01T23:31:24.332Z,1.05
2023-01-01T23:34:26.800Z,0.98
2023-01-01T23:37:28.452Z,0.86
2023-01-01T23:40:30.062Z,0.72
2023-01-01T23:43:31.773Z,0.56
2023-01-01T23:46:33.955Z,0.51
2023-01-01T23:49:36.165Z,0.46
2023-01-01T23:52:38.368Z,0.46
2023-01-01T23:55:40.491Z,0.57
2023-01-01T23:58:42.054Z,0.65
